createdAt,value
2022-09-01T00:08:34.763Z,66.11
2022-09-01T00:18:37.860Z,66.44
2022-09-01T00:28:42.433Z,66.41
2022-09-01T00:38:45.985Z,65.27
2022-09-01T00:48:56.148Z,65.53
2022-09-01T00:59:01.577Z,65.50
2022-09-01T01:09:06.119Z,66.32
2022-09-01T01:19:38.887Z,67.27
2022-09-01T01:29:48.009Z,68.26
2022-09-01T01:39:51.849Z,68.97
2022-09-01T01:49:57.861Z,69.58
2022-09-01T02:00:00.963Z,69.77
2022-09-01T02:10:06.660Z,70.34
2022-09-01T02:20:10.776Z,70.45
2022-09-01T02:30:15.246Z,67.78
2022-09-01T02:40:18.770Z,58.98
2022-09-01T02:50:25.680Z,53.79
2022-09-01T03:00:39.770Z,49.64
2022-09-01T03:10:47.089Z,47.15
2022-09-01T03:20:51.816Z,45.19
2022-09-01T03:30:58.499Z,44.13
2022-09-01T03:41:04.821Z,43.87
2022-09-01T03:51:10.157Z,42.39
2022-09-01T04:01:14.648Z,40.26
2022-09-01T04:11:24.476Z,41.27
2022-09-01T04:21:31.048Z,39.81
2022-09-01T04:31:39.147Z,39.97
2022-09-01T04:41:51.436Z,39.36
2022-09-01T04:51:56.146Z,38.16
2022-09-01T05:02:00.750Z,38.18
2022-09-01T05:12:15.593Z,38.75
2022-09-01T05:22:22.508Z,36.98
2022-09-01T05:32:27.937Z,38.06
2022-09-01T05:42:30.962Z,37.55
2022-09-01T05:52:38.974Z,37.94
2022-09-01T06:02:45.561Z,35.95
2022-09-01T06:12:54.404Z,35.92
2022-09-01T06:23:00.145Z,35.46
2022-09-01T06:33:11.314Z,36.47
2022-09-01T06:53:39.001Z,38.29
2022-09-01T07:03:44.390Z,39.56
2022-09-01T07:24:18.821Z,39.59
2022-09-01T07:34:46.206Z,40.36
2022-09-01T07:44:50.764Z,39.80
2022-09-01T07:54:55.495Z,39.56
2022-09-01T08:04:59.682Z,42.06
2022-09-01T08:15:13.970Z,43.09
2022-09-01T08:25:29.835Z,41.14
2022-09-01T08:35:35.594Z,40.96
2022-09-01T08:45:47.530Z,40.17
2022-09-01T08:55:57.697Z,38.25
2022-09-01T09:06:13.821Z,37.87
2022-09-01T09:16:23.916Z,39.46
2022-09-01T09:26:42.244Z,38.73
2022-09-01T09:36:54.522Z,38.82
2022-09-01T09:46:59.147Z,40.15
2022-09-01T09:57:13.670Z,39.84
2022-09-01T10:07:30.680Z,38.47
2022-09-01T10:17:40.538Z,38.56
2022-09-01T10:27:47.077Z,38.70
2022-09-01T10:37:55.731Z,38.82
2022-09-01T10:48:46.233Z,38.72
2022-09-01T11:09:35.459Z,39.29
2022-09-01T11:19:45.468Z,36.32
2022-09-01T11:29:55.456Z,35.33
2022-09-01T11:40:15.325Z,36.41
2022-09-01T12:13:14.296Z,36.98
2022-09-01T12:34:44.095Z,38.78
2022-09-01T12:44:57.475Z,36.52
2022-09-01T13:16:28.299Z,37.80
2022-09-01T13:26:36.214Z,32.89
2022-09-01T13:36:45.082Z,35.63
2022-09-01T13:47:00.949Z,37.84
2022-09-01T13:57:17.128Z,36.65
2022-09-01T14:17:41.092Z,38.84
2022-09-01T14:27:57.483Z,38.86
2022-09-01T14:38:03.057Z,39.40
2022-09-01T14:48:09.614Z,40.44
2022-09-01T14:58:13.085Z,42.28
2022-09-01T15:08:20.146Z,43.67
2022-09-01T15:18:23.749Z,44.16
2022-09-01T15:28:29.070Z,44.71
2022-09-01T15:38:32.637Z,44.35
2022-09-01T15:48:38.622Z,44.86
2022-09-01T15:59:00.702Z,45.01
2022-09-01T16:09:08.178Z,45.33
2022-09-01T16:19:25.547Z,45.47
2022-09-01T16:29:45.003Z,46.09
2022-09-01T16:39:52.611Z,47.19
2022-09-01T16:50:10.854Z,47.57
2022-09-01T17:00:34.013Z,48.23
2022-09-01T17:10:54.282Z,49.11
2022-09-01T17:21:10.562Z,49.94
2022-09-01T17:31:29.889Z,50.76
2022-09-01T17:41:42.858Z,51.61
2022-09-01T17:52:02.280Z,51.28
2022-09-01T18:02:26.241Z,52.70
2022-09-01T18:12:35.754Z,54.18
2022-09-01T18:22:49.128Z,55.34
2022-09-01T18:33:05.585Z,55.35
2022-09-01T18:43:18.360Z,55.73
2022-09-01T18:53:56.161Z,54.07
2022-09-01T19:04:10.466Z,56.35
2022-09-01T19:14:21.325Z,57.67
2022-09-01T19:24:36.174Z,57.67
2022-09-01T19:34:45.755Z,58.65
2022-09-01T19:44:57.195Z,58.20
2022-09-01T19:55:06.811Z,59.10
2022-09-01T20:05:21.685Z,59.57
2022-09-01T20:15:34.047Z,59.45
2022-09-01T20:25:46.320Z,59.65
2022-09-01T20:35:53.979Z,60.32
2022-09-01T20:45:59.274Z,60.65
2022-09-01T20:56:08.550Z,61.13
2022-09-01T21:06:23.617Z,61.29
2022-09-01T21:16:38.621Z,62.76
2022-09-01T21:26:43.167Z,63.04
2022-09-01T21:36:48.656Z,62.46
2022-09-01T21:46:53.358Z,63.45
2022-09-01T21:56:56.464Z,63.09
2022-09-01T22:07:01.531Z,62.97
2022-09-01T22:17:04.766Z,63.21
2022-09-01T22:27:09.323Z,62.99
2022-09-01T22:37:12.526Z,62.89
2022-09-01T22:47:17.028Z,63.14
2022-09-01T22:57:20.468Z,63.32
2022-09-01T23:07:25.015Z,63.55
2022-09-01T23:17:28.050Z,64.40
2022-09-01T23:27:32.616Z,64.60
2022-09-01T23:37:35.877Z,65.76
2022-09-01T23:47:40.570Z,66.95
2022-09-01T23:57:43.938Z,68.51
